Time;durP1;ratioP1;P1;durP2;ratioP2;P2;SDS_P1;SDS_P2;PMS_P1;PMS_P2;Temp;Humidity;BMP_temperature;BMP_pressure;BME280_temperature;BME280_humidity;BME280_pressure;Samples;Min_cycle;Max_cycle;Signal;HPM_P1;HPM_P2
2021/10/11 00:00:29;;;;;;;8.37;6.10;;;9.30;98.90;;;;;;5032439;28;20216;-70
2021/10/11 00:02:55;;;;;;;11.57;6.57;;;9.30;98.80;;;;;;5046503;28;20485;-69
2021/10/11 00:05:21;;;;;;;11.50;7.27;;;9.20;98.50;;;;;;5031119;28;20714;-70
2021/10/11 00:07:47;;;;;;;10.70;6.93;;;9.20;98.50;;;;;;5048509;28;20224;-69
2021/10/11 00:10:19;;;;;;;11.70;7.90;;;9.20;98.60;;;;;;5048862;28;20445;-69
2021/10/11 00:12:49;;;;;;;12.03;7.80;;;9.10;98.70;;;;;;5016731;28;20452;-69
2021/10/11 00:15:17;;;;;;;12.73;8.50;;;9.10;98.60;;;;;;5046996;28;20459;-68
2021/10/11 00:17:43;;;;;;;14.37;7.57;;;9.10;98.60;;;;;;5027944;28;20552;-69
2021/10/11 00:20:10;;;;;;;10.17;7.60;;;9.10;98.60;;;;;;5032380;28;20442;-69
2021/10/11 00:22:36;;;;;;;9.10;6.97;;;9.10;98.50;;;;;;5048008;28;20493;-69
2021/10/11 00:25:04;;;;;;;10.53;6.87;;;9.10;98.60;;;;;;5027423;28;20474;-69
2021/10/11 00:27:31;;;;;;;12.30;7.23;;;9.00;98.70;;;;;;5040132;28;20914;-69
2021/10/11 00:29:56;;;;;;;7.60;5.73;;;9.00;98.60;;;;;;5023629;28;20448;-69
2021/10/11 00:32:22;;;;;;;9.23;7.27;;;9.00;98.50;;;;;;5047990;28;20454;-70
2021/10/11 00:34:48;;;;;;;11.10;7.23;;;8.90;98.50;;;;;;5031492;28;20295;-70
2021/10/11 00:37:13;;;;;;;11.67;7.47;;;9.00;98.60;;;;;;5048704;28;20273;-69
2021/10/11 00:39:39;;;;;;;9.70;7.67;;;8.90;98.50;;;;;;5031789;28;20215;-70
2021/10/11 00:42:05;;;;;;;13.70;8.07;;;8.90;98.50;;;;;;5047632;28;20247;-69
2021/10/11 00:44:30;;;;;;;13.37;7.00;;;8.90;98.60;;;;;;5048277;28;20231;-69
2021/10/11 00:46:56;;;;;;;8.30;6.57;;;8.90;98.60;;;;;;5047998;28;20669;-69
2021/10/11 00:49:22;;;;;;;11.33;6.80;;;8.90;98.60;;;;;;5031668;28;20239;-70
2021/10/11 00:51:47;;;;;;;10.40;6.63;;;8.80;98.50;;;;;;5042686;28;20256;-69
2021/10/11 00:54:14;;;;;;;11.27;6.67;;;8.80;98.60;;;;;;5031826;28;20224;-69
2021/10/11 00:56:40;;;;;;;8.60;6.13;;;8.80;98.50;;;;;;5027712;28;20303;-68
2021/10/11 00:59:06;;;;;;;6.27;5.10;;;8.80;98.60;;;;;;5044852;28;20530;-69
2021/10/11 01:01:31;;;;;;;10.17;6.67;;;8.80;98.60;;;;;;5030782;28;20699;-69
2021/10/11 01:03:58;;;;;;;11.03;6.73;;;8.70;98.60;;;;;;5045751;28;20227;-69
2021/10/11 01:06:25;;;;;;;9.97;6.00;;;8.70;98.50;;;;;;5047103;28;20251;-69
2021/10/11 01:08:51;;;;;;;10.00;5.50;;;8.70;98.60;;;;;;5027874;28;20551;-69
2021/10/11 01:11:16;;;;;;;9.63;6.60;;;8.70;98.50;;;;;;5033550;28;20534;-70
2021/10/11 01:13:42;;;;;;;10.63;6.70;;;8.70;98.60;;;;;;5030888;28;20795;-68
2021/10/11 01:16:08;;;;;;;9.60;6.33;;;8.70;98.70;;;;;;5030842;28;20227;-69
2021/10/11 01:18:33;;;;;;;9.80;6.43;;;8.60;98.40;;;;;;5035296;28;20216;-69
2021/10/11 01:20:59;;;;;;;8.37;6.33;;;8.60;98.50;;;;;;5034829;28;20700;-69
2021/10/11 01:23:26;;;;;;;8.10;6.80;;;8.60;98.50;;;;;;5030991;28;20366;-68
2021/10/11 01:25:54;;;;;;;7.47;6.40;;;8.60;98.40;;;;;;5033677;28;20303;-70
2021/10/11 01:28:21;;;;;;;12.50;6.83;;;8.60;98.40;;;;;;5034791;28;20470;-69
2021/10/11 01:30:46;;;;;;;8.80;6.10;;;8.60;98.40;;;;;;5033943;28;20446;-69
2021/10/11 01:33:12;;;;;;;11.90;6.70;;;8.50;98.30;;;;;;5050516;28;20926;-69
2021/10/11 01:35:38;;;;;;;8.17;6.00;;;8.50;98.30;;;;;;5050839;28;20703;-70
2021/10/11 01:38:04;;;;;;;9.93;7.40;;;8.50;98.40;;;;;;5051824;28;20216;-69
2021/10/11 01:40:30;;;;;;;7.97;6.10;;;8.50;98.30;;;;;;5048529;28;20220;-69
2021/10/11 01:42:56;;;;;;;9.20;6.57;;;8.50;98.40;;;;;;5050537;28;20883;-69
2021/10/11 01:45:21;;;;;;;11.10;7.50;;;8.40;98.40;;;;;;5024394;28;20241;-69
2021/10/11 01:47:47;;;;;;;9.30;6.50;;;8.40;98.50;;;;;;5044723;28;20329;-69
2021/10/11 01:50:13;;;;;;;8.27;6.20;;;8.40;98.50;;;;;;5035134;28;20270;-69
2021/10/11 01:52:40;;;;;;;12.87;6.70;;;8.40;98.50;;;;;;5050299;28;20223;-69
2021/10/11 01:55:07;;;;;;;8.37;6.30;;;8.40;98.50;;;;;;5050649;28;20687;-69
2021/10/11 01:57:33;;;;;;;8.80;6.90;;;8.40;98.40;;;;;;5051284;28;20462;-69
2021/10/11 01:59:59;;;;;;;10.23;7.13;;;8.40;98.50;;;;;;5034368;28;20519;-72
2021/10/11 02:02:27;;;;;;;11.83;7.93;;;8.30;98.40;;;;;;5049137;28;20226;-72
2021/10/11 02:04:53;;;;;;;13.10;6.80;;;8.30;98.40;;;;;;5050186;28;20481;-70
2021/10/11 02:07:18;;;;;;;9.50;6.50;;;8.30;98.40;;;;;;5051429;28;20827;-71
2021/10/11 02:09:44;;;;;;;9.17;7.13;;;8.30;98.40;;;;;;5033210;28;20450;-70
2021/10/11 02:12:10;;;;;;;11.57;6.57;;;8.30;98.50;;;;;;5050369;28;20266;-71
2021/10/11 02:14:36;;;;;;;9.57;6.37;;;8.30;98.50;;;;;;5033953;28;20237;-72
2021/10/11 02:17:01;;;;;;;11.93;6.83;;;8.20;98.50;;;;;;5033826;28;20220;-70
2021/10/11 02:19:29;;;;;;;11.30;6.90;;;8.20;98.40;;;;;;5051176;28;20347;-72
2021/10/11 02:21:54;;;;;;;8.80;6.83;;;8.20;98.30;;;;;;5032435;28;20447;-72
2021/10/11 02:24:22;;;;;;;10.80;7.40;;;8.10;98.10;;;;;;5033343;28;20459;-72
2021/10/11 02:26:47;;;;;;;10.97;7.50;;;8.10;98.30;;;;;;5050210;28;20989;-72
2021/10/11 02:29:13;;;;;;;9.67;7.50;;;8.10;98.20;;;;;;5050214;28;20223;-72
2021/10/11 02:31:39;;;;;;;12.30;7.77;;;8.10;98.30;;;;;;5049548;28;20216;-71
2021/10/11 02:34:05;;;;;;;12.43;7.87;;;8.00;98.60;;;;;;5050893;28;20223;-71
2021/10/11 02:36:30;;;;;;;11.03;8.10;;;8.00;98.70;;;;;;5030247;28;20296;-72
2021/10/11 02:39:01;;;;;;;10.40;7.40;;;8.00;98.60;;;;;;5046594;28;20262;-71
2021/10/11 02:41:27;;;;;;;25.10;8.63;;;8.00;98.40;;;;;;5031746;28;20459;-72
2021/10/11 02:43:52;;;;;;;11.70;7.03;;;8.00;98.40;;;;;;5014980;28;20224;-72
2021/10/11 02:46:18;;;;;;;9.90;6.77;;;7.90;98.30;;;;;;5032244;28;20294;-72
2021/10/11 02:48:44;;;;;;;11.90;7.50;;;7.90;98.40;;;;;;5050092;28;20871;-71
2021/10/11 02:51:10;;;;;;;12.17;7.40;;;7.90;98.40;;;;;;5034057;28;20219;-72
2021/10/11 02:53:36;;;;;;;12.80;8.40;;;7.80;98.50;;;;;;5031663;28;20476;-71
2021/10/11 02:56:02;;;;;;;11.80;7.90;;;7.80;98.70;;;;;;5033482;28;20287;-71
2021/10/11 02:58:28;;;;;;;14.83;8.73;;;7.80;98.70;;;;;;5033882;28;20643;-71
2021/10/11 03:00:53;;;;;;;12.07;7.90;;;7.80;98.70;;;;;;5032547;28;20211;-71
2021/10/11 03:03:19;;;;;;;13.50;8.03;;;7.80;98.80;;;;;;5048952;28;20411;-69
2021/10/11 03:05:45;;;;;;;13.20;9.23;;;7.80;98.80;;;;;;5049189;28;20739;-69
2021/10/11 03:08:10;;;;;;;12.27;8.27;;;7.80;98.80;;;;;;5049848;28;20220;-69
2021/10/11 03:10:36;;;;;;;11.37;8.50;;;7.80;98.80;;;;;;5049897;28;20266;-69
2021/10/11 03:13:01;;;;;;;10.03;7.77;;;7.80;98.70;;;;;;5032383;28;20212;-69
2021/10/11 03:15:27;;;;;;;14.40;9.07;;;7.80;98.80;;;;;;5032326;28;20211;-69
2021/10/11 03:17:53;;;;;;;12.47;8.70;;;7.80;98.80;;;;;;5032719;28;20692;-69
2021/10/11 03:20:18;;;;;;;14.60;8.77;;;7.70;98.80;;;;;;5050125;28;20220;-69
2021/10/11 03:22:44;;;;;;;13.50;8.07;;;7.70;98.80;;;;;;5029900;28;20338;-69
2021/10/11 03:25:09;;;;;;;14.53;8.73;;;7.70;98.80;;;;;;5049343;28;20216;-69
2021/10/11 03:27:35;;;;;;;14.80;9.60;;;7.60;98.80;;;;;;5048898;28;20232;-69
2021/10/11 03:30:01;;;;;;;13.37;8.53;;;7.60;98.80;;;;;;5032349;28;20295;-70
2021/10/11 03:32:27;;;;;;;15.57;9.10;;;7.60;98.80;;;;;;5031695;28;20350;-70
2021/10/11 03:34:52;;;;;;;13.17;9.23;;;7.60;98.90;;;;;;5048821;28;20218;-68
2021/10/11 03:37:18;;;;;;;12.50;7.77;;;7.60;99.10;;;;;;5048517;28;20292;-69
2021/10/11 03:39:44;;;;;;;14.87;8.83;;;7.60;99.10;;;;;;5043638;28;20814;-69
2021/10/11 03:42:09;;;;;;;15.80;8.53;;;7.60;99.20;;;;;;5043717;28;20220;-68
2021/10/11 03:44:35;;;;;;;14.77;8.70;;;7.60;99.20;;;;;;5032995;28;20211;-69
2021/10/11 03:47:01;;;;;;;13.10;8.17;;;7.60;99.30;;;;;;5032341;28;20204;-69
2021/10/11 03:49:26;;;;;;;12.87;8.30;;;7.60;99.30;;;;;;5049409;28;20699;-69
2021/10/11 03:51:52;;;;;;;12.93;8.43;;;7.60;99.30;;;;;;5047904;28;20315;-68
2021/10/11 03:54:18;;;;;;;14.30;8.43;;;7.60;99.30;;;;;;5042998;28;20222;-70
2021/10/11 03:56:44;;;;;;;14.03;9.10;;;7.60;99.40;;;;;;5031818;28;20230;-69
2021/10/11 03:59:11;;;;;;;15.30;10.23;;;7.60;99.50;;;;;;5031572;28;20216;-69
2021/10/11 04:01:37;;;;;;;14.60;9.53;;;7.60;99.50;;;;;;5028442;28;20509;-69
2021/10/11 04:04:03;;;;;;;13.50;8.43;;;7.60;99.50;;;;;;5028580;28;20451;-69
2021/10/11 04:06:29;;;;;;;11.53;7.03;;;7.60;99.40;;;;;;5030540;28;20221;-69
2021/10/11 04:08:55;;;;;;;14.77;8.77;;;7.60;99.50;;;;;;5045401;28;20632;-69
2021/10/11 04:11:23;;;;;;;;;;;;;;;;;;;;;
2021/10/11 04:13:46;;;;;;;14.90;8.80;;;7.50;99.40;;;;;;5041283;28;20526;-69
2021/10/11 04:16:13;;;;;;;11.63;8.53;;;7.50;99.40;;;;;;5047265;28;20602;-69
2021/10/11 04:18:39;;;;;;;16.77;9.80;;;7.50;99.40;;;;;;5031745;28;20276;-70
2021/10/11 04:21:04;;;;;;;13.67;8.57;;;7.50;99.50;;;;;;5030097;28;20454;-69
2021/10/11 04:23:30;;;;;;;14.83;8.50;;;7.50;99.50;;;;;;5043688;28;20458;-69
2021/10/11 04:25:56;;;;;;;12.47;8.53;;;7.50;99.50;;;;;;5031730;28;20357;-69
2021/10/11 04:28:22;;;;;;;17.80;8.33;;;7.50;99.50;;;;;;5041488;28;20470;-69
2021/10/11 04:30:48;;;;;;;14.00;9.23;;;7.50;99.50;;;;;;5048590;28;20243;-68
2021/10/11 04:33:14;;;;;;;14.50;8.53;;;7.50;99.50;;;;;;5043284;28;20223;-69
2021/10/11 04:35:40;;;;;;;14.97;8.70;;;7.50;99.60;;;;;;5047978;28;20710;-68
2021/10/11 04:38:07;;;;;;;14.70;8.90;;;7.50;99.70;;;;;;5026568;28;20467;-69
2021/10/11 04:40:33;;;;;;;14.13;9.23;;;7.40;99.50;;;;;;5048298;28;20458;-71
2021/10/11 04:42:59;;;;;;;13.50;8.40;;;7.40;99.50;;;;;;5047603;28;20435;-71
2021/10/11 04:45:29;;;;;;;14.13;8.90;;;7.40;99.40;;;;;;5032882;28;20473;-71
2021/10/11 04:47:56;;;;;;;15.83;9.23;;;7.40;99.40;;;;;;5052125;28;20230;-71
2021/10/11 04:50:22;;;;;;;12.93;7.93;;;7.40;99.50;;;;;;5052835;28;20451;-71
2021/10/11 04:52:47;;;;;;;11.80;8.20;;;7.40;99.60;;;;;;5051142;28;20461;-71
2021/10/11 04:55:13;;;;;;;13.80;8.80;;;7.40;99.60;;;;;;5030371;28;20220;-72
2021/10/11 04:57:38;;;;;;;19.83;9.63;;;7.40;99.60;;;;;;5052125;28;20332;-70
2021/10/11 05:00:05;;;;;;;17.77;9.23;;;7.40;99.70;;;;;;5054091;28;20216;-71
2021/10/11 05:02:30;;;;;;;16.83;10.50;;;7.30;99.70;;;;;;5034069;28;20207;-72
2021/10/11 05:04:56;;;;;;;15.20;9.00;;;7.30;99.90;;;;;;5031972;28;20859;-72
2021/10/11 05:07:22;;;;;;;17.77;9.70;;;7.20;99.90;;;;;;5031149;28;20227;-72
2021/10/11 05:09:47;;;;;;;14.40;9.93;;;7.20;99.90;;;;;;5051854;28;20215;-72
2021/10/11 05:12:13;;;;;;;15.67;10.30;;;7.20;99.90;;;;;;5034063;28;20579;-72
2021/10/11 05:14:38;;;;;;;16.87;11.10;;;7.30;99.90;;;;;;5031807;28;20282;-72
2021/10/11 05:17:04;;;;;;;19.63;11.77;;;7.30;99.90;;;;;;5032282;28;20220;-72
2021/10/11 05:19:30;;;;;;;15.00;9.73;;;7.30;99.90;;;;;;5032346;28;20212;-71
2021/10/11 05:21:55;;;;;;;18.90;9.77;;;7.30;99.90;;;;;;5034027;28;20606;-71
2021/10/11 05:24:24;;;;;;;16.17;8.77;;;7.30;99.90;;;;;;5035416;28;20239;-71
2021/10/11 05:26:51;;;;;;;17.13;10.90;;;7.30;99.90;;;;;;5034086;28;20282;-71
2021/10/11 05:29:18;;;;;;;15.33;9.13;;;7.30;99.90;;;;;;5051648;28;20492;-72
2021/10/11 05:31:44;;;;;;;15.00;10.07;;;7.20;99.90;;;;;;5029745;28;20986;-72
2021/10/11 05:34:10;;;;;;;14.07;10.10;;;7.20;99.90;;;;;;5049676;28;20833;-71
2021/10/11 05:36:35;;;;;;;16.13;10.37;;;7.20;99.90;;;;;;5051493;28;20464;-71
2021/10/11 05:39:01;;;;;;;17.13;9.13;;;7.20;99.90;;;;;;5033863;28;20303;-72
2021/10/11 05:41:27;;;;;;;15.10;10.23;;;7.20;99.90;;;;;;5031141;28;20700;-71
2021/10/11 05:43:53;;;;;;;16.07;9.40;;;7.20;99.90;;;;;;5030727;28;20489;-72
2021/10/11 05:46:18;;;;;;;18.87;11.77;;;7.20;99.90;;;;;;5024524;28;20224;-71
2021/10/11 05:48:44;;;;;;;28.10;14.10;;;7.20;99.90;;;;;;5044544;28;20228;-72
2021/10/11 05:51:09;;;;;;;19.10;12.27;;;7.20;99.90;;;;;;5034354;28;20231;-71
2021/10/11 05:53:35;;;;;;;17.97;11.97;;;7.20;99.90;;;;;;5050365;28;20643;-71
2021/10/11 05:56:01;;;;;;;21.83;11.37;;;7.20;99.90;;;;;;5030495;28;20228;-71
2021/10/11 05:58:26;;;;;;;23.67;13.00;;;7.20;99.90;;;;;;5031652;28;20299;-69
2021/10/11 06:00:52;;;;;;;21.30;12.57;;;7.20;99.90;;;;;;5033773;28;20299;-69
2021/10/11 06:03:18;;;;;;;21.60;11.93;;;7.20;99.90;;;;;;5049677;28;20270;-71
2021/10/11 06:05:43;;;;;;;27.10;13.70;;;7.20;99.90;;;;;;5050394;28;20235;-71
2021/10/11 06:08:09;;;;;;;19.53;13.10;;;7.20;99.90;;;;;;5034533;28;20224;-72
2021/10/11 06:10:37;;;;;;;23.77;13.47;;;7.30;99.90;;;;;;5041343;28;20223;-71
2021/10/11 06:13:02;;;;;;;18.83;12.03;;;7.30;99.90;;;;;;5050049;28;20269;-72
2021/10/11 06:15:28;;;;;;;19.23;11.10;;;7.30;99.90;;;;;;5034485;28;20521;-71
2021/10/11 06:17:54;;;;;;;22.30;12.97;;;7.20;99.90;;;;;;5043839;28;20683;-71
2021/10/11 06:20:20;;;;;;;18.50;10.40;;;7.20;99.90;;;;;;5050864;28;20223;-71
2021/10/11 06:22:45;;;;;;;19.47;10.87;;;7.20;99.90;;;;;;5049336;28;20228;-72
2021/10/11 06:25:11;;;;;;;16.60;9.73;;;7.20;99.90;;;;;;5050954;28;20216;-71
2021/10/11 06:27:37;;;;;;;14.73;10.20;;;7.20;99.90;;;;;;5032995;28;20220;-71
2021/10/11 06:30:04;;;;;;;16.20;9.83;;;7.20;99.90;;;;;;5030689;28;20227;-69
2021/10/11 06:32:30;;;;;;;16.60;9.53;;;7.20;99.90;;;;;;5040259;28;20526;-69
2021/10/11 06:34:55;;;;;;;17.60;10.30;;;7.20;99.90;;;;;;5033495;28;20890;-68
2021/10/11 06:37:21;;;;;;;18.63;9.70;;;7.20;99.90;;;;;;5050365;28;20223;-69
2021/10/11 06:39:48;;;;;;;16.60;11.03;;;7.20;99.90;;;;;;5047873;28;20211;-68
2021/10/11 06:42:13;;;;;;;13.57;9.20;;;7.20;99.90;;;;;;5049070;28;20219;-69
2021/10/11 06:44:39;;;;;;;15.07;9.40;;;7.20;99.90;;;;;;5049157;28;20451;-69
2021/10/11 06:47:05;;;;;;;22.33;10.13;;;7.20;99.90;;;;;;5040709;28;20227;-69
2021/10/11 06:49:30;;;;;;;19.30;10.77;;;7.20;99.90;;;;;;5031712;28;20228;-69
2021/10/11 06:51:56;;;;;;;14.27;9.90;;;7.20;99.90;;;;;;5048449;28;20228;-69
2021/10/11 06:54:21;;;;;;;16.47;11.07;;;7.20;99.90;;;;;;5027804;28;20215;-68
2021/10/11 06:56:50;;;;;;;14.73;9.77;;;7.20;99.90;;;;;;5024026;28;20676;-68
2021/10/11 06:59:16;;;;;;;19.40;10.93;;;7.30;99.90;;;;;;5031690;28;20708;-68
2021/10/11 07:01:43;;;;;;;17.40;9.83;;;7.30;99.90;;;;;;5028702;28;20466;-72
2021/10/11 07:04:10;;;;;;;14.17;8.80;;;7.30;99.90;;;;;;5049485;28;20220;-71
2021/10/11 07:06:36;;;;;;;14.07;9.20;;;7.30;99.90;;;;;;5050225;28;20459;-72
2021/10/11 07:09:02;;;;;;;15.20;8.63;;;7.30;99.90;;;;;;5048784;28;20465;-72
2021/10/11 07:11:28;;;;;;;17.83;9.13;;;7.30;99.90;;;;;;5032356;28;20254;-72
2021/10/11 07:13:53;;;;;;;15.90;9.20;;;7.30;99.90;;;;;;5049411;28;20490;-72
2021/10/11 07:16:19;;;;;;;15.53;10.40;;;7.30;99.90;;;;;;5049395;28;20224;-72
2021/10/11 07:18:45;;;;;;;15.53;10.47;;;7.30;99.90;;;;;;5049297;28;20211;-72
2021/10/11 07:21:10;;;;;;;12.83;9.67;;;7.40;99.90;;;;;;5045538;28;20320;-71
2021/10/11 07:23:36;;;;;;;13.40;9.57;;;7.40;99.90;;;;;;5048408;28;20226;-72
2021/10/11 07:26:04;;;;;;;17.93;9.80;;;7.40;99.90;;;;;;5049551;28;20740;-72
2021/10/11 07:28:30;;;;;;;18.57;11.43;;;7.40;99.90;;;;;;5032298;28;20228;-71
2021/10/11 07:30:56;;;;;;;19.20;11.60;;;7.50;99.90;;;;;;5049143;28;20453;-72
2021/10/11 07:33:23;;;;;;;17.17;11.17;;;7.50;99.90;;;;;;5048680;28;20486;-71
2021/10/11 07:35:50;;;;;;;24.37;11.30;;;7.50;99.90;;;;;;5026289;28;20598;-72
2021/10/11 07:38:15;;;;;;;17.50;11.50;;;7.50;99.90;;;;;;5026761;28;20512;-69
2021/10/11 07:40:41;;;;;;;17.53;11.67;;;7.60;99.90;;;;;;5045136;28;20482;-69
2021/10/11 07:43:07;;;;;;;21.70;13.00;;;7.60;99.90;;;;;;5047088;28;20334;-69
2021/10/11 07:45:33;;;;;;;19.10;11.47;;;7.60;99.90;;;;;;5029046;28;20221;-69
2021/10/11 07:47:58;;;;;;;19.83;11.90;;;7.60;99.90;;;;;;5029832;28;20236;-69
2021/10/11 07:50:24;;;;;;;19.00;13.00;;;7.70;99.90;;;;;;5029336;28;20216;-69
2021/10/11 07:52:50;;;;;;;19.00;11.50;;;7.70;99.90;;;;;;5026100;28;20226;-69
2021/10/11 07:55:16;;;;;;;15.77;11.27;;;7.70;99.90;;;;;;5049139;28;20227;-70
2021/10/11 07:57:42;;;;;;;19.50;12.30;;;7.70;99.90;;;;;;5026909;28;20920;-68
2021/10/11 08:00:13;;;;;;;17.87;11.60;;;7.80;99.90;;;;;;5031652;28;20464;-69
2021/10/11 08:02:41;;;;;;;20.80;11.93;;;7.80;99.90;;;;;;5039025;28;20446;-70
2021/10/11 08:05:13;;;;;;;22.50;11.73;;;7.80;99.90;;;;;;5048295;28;20823;-69
2021/10/11 08:07:40;;;;;;;31.30;14.00;;;7.80;99.90;;;;;;5047972;28;20520;-69
2021/10/11 08:10:06;;;;;;;21.17;12.63;;;7.80;99.90;;;;;;5032064;28;20466;-69
2021/10/11 08:12:32;;;;;;;24.63;12.67;;;7.90;99.90;;;;;;5026755;28;21046;-69
2021/10/11 08:14:58;;;;;;;25.17;13.10;;;7.90;99.90;;;;;;5030976;28;20537;-69
2021/10/11 08:17:23;;;;;;;23.60;13.53;;;7.90;99.90;;;;;;5032271;28;20216;-69
2021/10/11 08:19:49;;;;;;;18.10;11.70;;;7.90;99.90;;;;;;5047505;28;20216;-68
2021/10/11 08:22:15;;;;;;;23.73;11.97;;;7.90;99.90;;;;;;5039743;28;20259;-69
2021/10/11 08:24:40;;;;;;;19.70;12.70;;;8.00;99.90;;;;;;5047838;28;20215;-69
2021/10/11 08:27:06;;;;;;;25.20;13.77;;;8.00;99.90;;;;;;5046359;28;20462;-71
2021/10/11 08:29:33;;;;;;;25.43;13.20;;;8.00;99.90;;;;;;5036189;28;20228;-71
2021/10/11 08:31:59;;;;;;;22.87;13.37;;;8.00;99.90;;;;;;5029734;28;20538;-71
2021/10/11 08:34:24;;;;;;;25.50;13.37;;;8.10;99.90;;;;;;5048409;28;20223;-71
2021/10/11 08:36:50;;;;;;;20.73;11.53;;;8.10;99.90;;;;;;5030835;28;20629;-71
2021/10/11 08:39:16;;;;;;;28.90;13.63;;;8.10;99.90;;;;;;5029508;28;20318;-70
2021/10/11 08:41:42;;;;;;;20.00;12.50;;;8.20;99.90;;;;;;5046840;28;20610;-71
2021/10/11 08:44:10;;;;;;;27.07;14.53;;;8.20;99.90;;;;;;5026656;28;20213;-71
2021/10/11 08:46:36;;;;;;;35.00;17.20;;;8.20;99.90;;;;;;5040580;28;20966;-71
2021/10/11 08:49:02;;;;;;;39.80;18.40;;;8.30;99.90;;;;;;5046352;28;20465;-72
2021/10/11 08:51:28;;;;;;;38.07;21.53;;;8.30;99.90;;;;;;5047116;28;20223;-71
2021/10/11 08:53:53;;;;;;;73.90;43.17;;;8.30;99.90;;;;;;5047138;28;20330;-70
2021/10/11 08:56:19;;;;;;;130.63;78.97;;;8.40;99.90;;;;;;5046803;28;20224;-71
2021/10/11 08:58:48;;;;;;;99.67;59.27;;;8.40;99.90;;;;;;5047835;28;20244;-71
2021/10/11 09:01:14;;;;;;;73.10;41.60;;;8.40;99.90;;;;;;5030414;28;20228;-71
2021/10/11 09:03:41;;;;;;;67.77;36.87;;;8.50;99.90;;;;;;5030041;28;21009;-71
2021/10/11 09:06:11;;;;;;;95.10;48.87;;;8.50;99.90;;;;;;5027984;28;20525;-71
2021/10/11 09:08:38;;;;;;;83.73;44.57;;;8.50;99.90;;;;;;5028402;28;20475;-71
2021/10/11 09:11:07;;;;;;;205.17;75.50;;;8.50;99.90;;;;;;5033833;28;20480;-72
2021/10/11 09:13:39;;;;;;;209.17;78.67;;;8.60;99.90;;;;;;5038986;28;20442;-72
2021/10/11 09:16:18;;;;;;;187.03;79.37;;;8.60;99.90;;;;;;5030915;28;20459;-70
2021/10/11 09:18:52;;;;;;;92.07;47.53;;;8.70;99.90;;;;;;5030827;28;20458;-72
2021/10/11 09:21:29;;;;;;;58.57;33.20;;;8.70;99.90;;;;;;5047517;28;20588;-71
2021/10/11 09:24:10;;;;;;;51.43;28.57;;;8.70;99.90;;;;;;5027320;28;20545;-70
2021/10/11 09:26:50;;;;;;;48.20;25.93;;;8.80;99.90;;;;;;5040973;28;20466;-70
2021/10/11 09:29:33;;;;;;;49.07;26.50;;;8.80;99.90;;;;;;5020861;28;20520;-71
2021/10/11 09:32:02;;;;;;;44.67;23.03;;;8.80;99.90;;;;;;5041900;28;20458;-70
2021/10/11 09:34:28;;;;;;;39.83;21.80;;;8.80;99.90;;;;;;5041614;28;20840;-70
2021/10/11 09:37:04;;;;;;;29.93;17.80;;;8.80;99.90;;;;;;5033365;28;20465;-71
2021/10/11 09:39:33;;;;;;;38.33;18.00;;;8.80;99.90;;;;;;5034607;28;20211;-71
2021/10/11 09:42:00;;;;;;;26.37;16.60;;;8.80;99.90;;;;;;5051225;28;20478;-71
2021/10/11 09:44:27;;;;;;;33.23;17.30;;;8.80;99.90;;;;;;5031543;28;20470;-71
2021/10/11 09:47:13;;;;;;;28.23;16.27;;;8.80;99.90;;;;;;5050657;28;20454;-70
2021/10/11 09:49:39;;;;;;;27.37;17.03;;;8.90;99.90;;;;;;5048252;28;20477;-72
2021/10/11 09:52:05;;;;;;;25.90;16.30;;;8.90;99.90;;;;;;5041492;28;20439;-71
2021/10/11 09:54:31;;;;;;;32.00;17.67;;;8.90;99.90;;;;;;5048143;28;20519;-71
2021/10/11 09:56:57;;;;;;;34.00;19.07;;;8.90;99.90;;;;;;5044158;28;20488;-70
2021/10/11 09:59:24;;;;;;;32.03;16.97;;;8.90;99.90;;;;;;5024920;28;20427;-71
2021/10/11 10:01:50;;;;;;;27.33;17.27;;;9.00;99.90;;;;;;5020507;28;20477;-70
2021/10/11 10:04:22;;;;;;;35.23;18.47;;;9.00;99.90;;;;;;5045820;28;20465;-71
2021/10/11 10:06:50;;;;;;;32.10;18.43;;;9.10;99.90;;;;;;5045812;28;20958;-71
2021/10/11 10:09:19;;;;;;;33.90;19.70;;;9.20;99.90;;;;;;5046758;28;20450;-71
2021/10/11 10:11:45;;;;;;;31.93;19.00;;;9.30;99.90;;;;;;5045578;28;20455;-71
2021/10/11 10:14:23;;;;;;;34.90;19.33;;;9.40;99.90;;;;;;5045871;28;20427;-71
2021/10/11 10:16:52;;;;;;;38.63;19.50;;;9.50;99.90;;;;;;5029047;28;20861;-71
2021/10/11 10:19:18;;;;;;;28.80;17.83;;;9.50;99.90;;;;;;5046559;28;20469;-70
2021/10/11 10:21:45;;;;;;;31.37;17.07;;;9.60;99.90;;;;;;5044689;28;20426;-71
2021/10/11 10:24:22;;;;;;;28.10;16.03;;;9.60;99.90;;;;;;5029468;28;20418;-71
2021/10/11 10:26:47;;;;;;;26.80;15.63;;;9.70;99.90;;;;;;5043233;28;20472;-71
2021/10/11 10:29:15;;;;;;;33.73;16.40;;;9.90;99.90;;;;;;5028254;28;20462;-70
2021/10/11 10:31:41;;;;;;;27.47;15.73;;;9.90;99.90;;;;;;5037086;28;20188;-71
2021/10/11 11:38:20;;;;;;;13.23;7.10;;;11.40;99.90;;;;;;5030183;27;1217302;-72
2021/10/11 11:40:47;;;;;;;9.40;5.47;;;11.70;99.90;;;;;;5037814;28;20462;-72
2021/10/11 11:43:13;;;;;;;15.47;9.90;;;11.80;99.90;;;;;;5046153;28;20478;-72
2021/10/11 11:45:46;;;;;;;12.83;8.80;;;11.90;99.90;;;;;;5029445;28;20455;-72
2021/10/11 11:48:16;;;;;;;11.90;6.57;;;12.00;99.90;;;;;;5029403;28;20497;-73
2021/10/11 11:50:43;;;;;;;8.63;6.00;;;12.00;99.90;;;;;;5047150;28;20592;-73
2021/10/11 11:53:10;;;;;;;11.70;6.07;;;12.10;99.90;;;;;;5029987;28;20451;-72
2021/10/11 11:55:36;;;;;;;6.57;5.20;;;12.20;99.90;;;;;;5028731;28;20893;-73
2021/10/11 11:58:03;;;;;;;7.97;5.10;;;12.30;99.90;;;;;;5029144;28;20466;-72
2021/10/11 12:00:30;;;;;;;7.10;5.20;;;12.40;99.90;;;;;;5028557;28;20608;-73
2021/10/11 12:02:58;;;;;;;4.97;4.00;;;12.40;99.90;;;;;;5025592;28;20841;-73
2021/10/11 12:05:24;;;;;;;6.07;4.60;;;12.50;99.90;;;;;;5025479;28;20459;-73
2021/10/11 12:07:51;;;;;;;6.10;5.07;;;12.50;99.90;;;;;;5008634;28;20970;-73
2021/10/11 12:10:20;;;;;;;9.73;5.60;;;12.60;99.90;;;;;;5025279;28;20517;-73
2021/10/11 12:12:46;;;;;;;10.67;5.40;;;12.60;99.90;;;;;;5025161;28;20462;-73
2021/10/11 12:15:20;;;;;;;7.90;4.63;;;12.70;99.90;;;;;;5025507;28;20460;-73
2021/10/11 12:17:46;;;;;;;6.50;4.40;;;12.70;99.90;;;;;;5020559;28;20485;-72
2021/10/11 12:20:12;;;;;;;3.57;3.07;;;12.70;99.90;;;;;;5012830;28;20476;-73
2021/10/11 12:22:38;;;;;;;6.97;3.50;;;12.70;99.90;;;;;;5048733;28;20215;-73
2021/10/11 12:25:06;;;;;;;5.90;3.73;;;12.70;99.90;;;;;;5049365;28;20541;-73
2021/10/11 12:27:32;;;;;;;6.00;3.70;;;12.80;99.90;;;;;;5048842;28;20230;-73
2021/10/11 12:30:05;;;;;;;5.23;2.97;;;12.80;99.90;;;;;;5032329;28;20828;-72
2021/10/11 12:32:33;;;;;;;3.97;3.37;;;12.90;99.90;;;;;;5032515;28;20231;-73
2021/10/11 12:35:00;;;;;;;3.50;2.73;;;12.80;99.90;;;;;;5032827;28;20453;-73
2021/10/11 12:37:36;;;;;;;2.60;2.17;;;12.80;99.90;;;;;;5019479;28;20833;-74
2021/10/11 12:40:04;;;;;;;3.73;2.57;;;12.80;99.90;;;;;;5058897;28;20471;-72
2021/10/11 12:42:30;;;;;;;4.17;2.87;;;12.90;99.90;;;;;;5018386;28;21049;-73
2021/10/11 12:44:59;;;;;;;8.30;2.70;;;12.90;99.90;;;;;;5018977;28;20993;-72
2021/10/11 12:47:26;;;;;;;7.37;3.40;;;12.90;99.90;;;;;;4999047;28;20463;-73
2021/10/11 12:50:00;;;;;;;2.97;2.30;;;13.00;99.90;;;;;;5015591;28;20487;-73
2021/10/11 12:52:44;;;;;;;4.93;2.83;;;13.00;99.90;;;;;;4998907;28;20466;-73
2021/10/11 12:55:11;;;;;;;4.33;2.70;;;13.00;99.90;;;;;;5016082;28;20468;-73
2021/10/11 12:57:39;;;;;;;3.17;2.80;;;13.00;99.90;;;;;;5015311;28;20471;-73
2021/10/11 13:00:07;;;;;;;7.33;3.60;;;13.00;99.90;;;;;;4999073;28;20509;-73
2021/10/11 13:02:34;;;;;;;5.43;3.00;;;13.00;99.90;;;;;;5020942;28;20458;-73
2021/10/11 13:04:59;;;;;;;4.97;3.60;;;13.00;99.90;;;;;;5015460;28;20459;-72
2021/10/11 13:07:25;;;;;;;3.60;2.60;;;13.00;99.90;;;;;;4998883;28;20462;-73
2021/10/11 13:09:51;;;;;;;6.83;3.30;;;13.00;99.90;;;;;;5032664;28;20235;-72
2021/10/11 13:12:17;;;;;;;18.13;4.97;;;13.10;99.90;;;;;;5015605;28;20220;-73
2021/10/11 13:14:42;;;;;;;5.87;3.90;;;13.10;99.90;;;;;;5031762;28;20216;-73
2021/10/11 13:17:08;;;;;;;7.30;3.10;;;13.10;99.90;;;;;;5032918;28;20472;-73
2021/10/11 13:19:35;;;;;;;3.73;3.23;;;13.10;99.90;;;;;;5014558;28;20235;-73
2021/10/11 13:22:01;;;;;;;8.10;3.77;;;13.10;99.90;;;;;;5031834;28;20225;-73
2021/10/11 13:24:27;;;;;;;7.17;3.43;;;13.10;99.90;;;;;;5031712;28;20487;-73
2021/10/11 13:26:52;;;;;;;10.17;4.10;;;13.20;99.90;;;;;;5015221;28;20605;-73
2021/10/11 13:32:53;;;;;;;5.80;3.67;;;13.20;99.90;;;;;;4975210;28;20225;-73
2021/10/11 14:29:01;;;;;;;6.60;5.87;;;13.90;99.90;;;;;;5009373;28;20451;-72
2021/10/11 14:31:34;;;;;;;7.97;4.40;;;13.90;99.90;;;;;;5020089;28;20514;-73
2021/10/11 14:34:40;;;;;;;7.00;4.27;;;14.00;99.90;;;;;;4997067;28;20451;-72
2021/10/11 15:59:24;;;;;;;5.10;3.17;;;14.00;99.90;;;;;;5027451;28;20534;-72
2021/10/11 16:04:21;;;;;;;7.40;4.73;;;14.00;99.90;;;;;;5028555;28;20454;-73
2021/10/11 16:06:47;;;;;;;6.10;5.10;;;14.00;99.90;;;;;;5006740;28;20555;-72
2021/10/11 16:09:13;;;;;;;8.30;4.60;;;14.00;99.90;;;;;;5009885;28;20228;-71